sensor_id;sensor_type;location;lat;lon;timestamp;pressure;altitude;pressure_sealevel;temperature;humidity
13209;BME280;6669;42.678;23.332;2023-04-06T00:01:35;94287.97;;;-0.93;100.00
13209;BME280;6669;42.678;23.332;2023-04-06T00:04:03;94292.97;;;-0.92;100.00
13209;BME280;6669;42.678;23.332;2023-04-06T00:06:32;94285.31;;;-0.92;100.00
13209;BME280;6669;42.678;23.332;2023-04-06T00:09:00;94301.00;;;-0.85;100.00
13209;BME280;6669;42.678;23.332;2023-04-06T00:11:30;94298.47;;;-0.85;100.00
13209;BME280;6669;42.678;23.332;2023-04-06T00:13:58;94279.88;;;-0.87;100.00
13209;BME280;6669;42.678;23.332;2023-04-06T00:16:26;94284.06;;;-0.86;100.00
13209;BME280;6669;42.678;23.332;2023-04-06T00:18:56;94270.13;;;-0.93;100.00
13209;BME280;6669;42.678;23.332;2023-04-06T00:21:24;94287.66;;;-0.89;100.00
13209;BME280;6669;42.678;23.332;2023-04-06T00:23:52;94279.28;;;-0.91;100.00
13209;BME280;6669;42.678;23.332;2023-04-06T00:26:20;94282.22;;;-0.84;100.00
13209;BME280;6669;42.678;23.332;2023-04-06T00:28:49;94271.31;;;-0.86;100.00
13209;BME280;6669;42.678;23.332;2023-04-06T00:31:18;94263.78;;;-0.88;100.00
13209;BME280;6669;42.678;23.332;2023-04-06T00:33:48;94247.59;;;-1.00;100.00
13209;BME280;6669;42.678;23.332;2023-04-06T00:36:16;94236.91;;;-1.05;100.00
13209;BME280;6669;42.678;23.332;2023-04-06T00:38:44;94242.50;;;-1.00;100.00
13209;BME280;6669;42.678;23.332;2023-04-06T00:41:12;94254.38;;;-0.87;100.00
13209;BME280;6669;42.678;23.332;2023-04-06T00:43:40;94266.56;;;-0.79;100.00
13209;BME280;6669;42.678;23.332;2023-04-06T00:46:09;94237.28;;;-0.98;100.00
13209;BME280;6669;42.678;23.332;2023-04-06T00:48:37;94245.03;;;-1.00;100.00
13209;BME280;6669;42.678;23.332;2023-04-06T00:51:07;94226.28;;;-0.99;100.00
13209;BME280;6669;42.678;23.332;2023-04-06T00:53:35;94224.88;;;-1.03;100.00
13209;BME280;6669;42.678;23.332;2023-04-06T00:56:03;94253.00;;;-0.80;100.00
13209;BME280;6669;42.678;23.332;2023-04-06T00:58:31;94251.06;;;-0.76;100.00
13209;BME280;6669;42.678;23.332;2023-04-06T01:01:00;94269.59;;;-0.74;100.00
13209;BME280;6669;42.678;23.332;2023-04-06T01:03:29;94240.34;;;-0.93;100.00
13209;BME280;6669;42.678;23.332;2023-04-06T01:05:57;94254.16;;;-0.73;100.00
13209;BME280;6669;42.678;23.332;2023-04-06T01:08:26;94231.28;;;-0.86;100.00
13209;BME280;6669;42.678;23.332;2023-04-06T01:10:54;94265.44;;;-0.64;100.00
13209;BME280;6669;42.678;23.332;2023-04-06T01:13:22;94242.44;;;-0.75;100.00
13209;BME280;6669;42.678;23.332;2023-04-06T01:15:50;94242.34;;;-0.74;100.00
13209;BME280;6669;42.678;23.332;2023-04-06T01:18:19;94247.81;;;-0.67;100.00
13209;BME280;6669;42.678;23.332;2023-04-06T01:20:54;94228.84;;;-0.87;100.00
13209;BME280;6669;42.678;23.332;2023-04-06T01:23:23;94245.38;;;-0.69;100.00
13209;BME280;6669;42.678;23.332;2023-04-06T01:25:51;94224.09;;;-0.80;100.00
13209;BME280;6669;42.678;23.332;2023-04-06T01:28:19;94237.50;;;-0.66;100.00
13209;BME280;6669;42.678;23.332;2023-04-06T01:30:47;94235.53;;;-0.62;100.00
13209;BME280;6669;42.678;23.332;2023-04-06T01:33:15;94249.56;;;-0.56;100.00
13209;BME280;6669;42.678;23.332;2023-04-06T01:35:43;94250.03;;;-0.51;100.00
13209;BME280;6669;42.678;23.332;2023-04-06T01:38:11;94225.06;;;-0.70;100.00
13209;BME280;6669;42.678;23.332;2023-04-06T01:40:41;94235.06;;;-0.56;100.00
13209;BME280;6669;42.678;23.332;2023-04-06T01:43:08;94206.13;;;-0.79;100.00
13209;BME280;6669;42.678;23.332;2023-04-06T01:45:37;94244.91;;;-0.62;100.00
13209;BME280;6669;42.678;23.332;2023-04-06T01:48:07;94218.78;;;-0.77;100.00
13209;BME280;6669;42.678;23.332;2023-04-06T01:50:35;94211.03;;;-0.76;100.00
13209;BME280;6669;42.678;23.332;2023-04-06T01:53:03;94184.09;;;-0.80;100.00
13209;BME280;6669;42.678;23.332;2023-04-06T01:55:31;94197.34;;;-0.75;100.00
13209;BME280;6669;42.678;23.332;2023-04-06T01:58:00;94215.22;;;-0.63;100.00
13209;BME280;6669;42.678;23.332;2023-04-06T02:00:28;94205.22;;;-0.67;100.00
13209;BME280;6669;42.678;23.332;2023-04-06T02:02:56;94214.88;;;-0.59;100.00
13209;BME280;6669;42.678;23.332;2023-04-06T02:05:24;94195.72;;;-0.64;100.00
13209;BME280;6669;42.678;23.332;2023-04-06T02:07:53;94204.19;;;-0.64;100.00
13209;BME280;6669;42.678;23.332;2023-04-06T02:10:21;94198.50;;;-0.68;100.00
13209;BME280;6669;42.678;23.332;2023-04-06T02:12:49;94209.19;;;-0.51;100.00
13209;BME280;6669;42.678;23.332;2023-04-06T02:15:18;94215.00;;;-0.49;100.00
13209;BME280;6669;42.678;23.332;2023-04-06T02:17:46;94222.41;;;-0.46;100.00
13209;BME280;6669;42.678;23.332;2023-04-06T02:20:14;94175.41;;;-0.77;100.00
13209;BME280;6669;42.678;23.332;2023-04-06T02:22:43;94204.78;;;-0.60;100.00
13209;BME280;6669;42.678;23.332;2023-04-06T02:25:11;94215.25;;;-0.52;100.00
13209;BME280;6669;42.678;23.332;2023-04-06T02:27:39;94215.13;;;-0.51;100.00
13209;BME280;6669;42.678;23.332;2023-04-06T02:30:07;94207.78;;;-0.55;100.00
13209;BME280;6669;42.678;23.332;2023-04-06T02:32:37;94223.59;;;-0.50;100.00
13209;BME280;6669;42.678;23.332;2023-04-06T02:35:05;94216.38;;;-0.45;100.00
13209;BME280;6669;42.678;23.332;2023-04-06T02:37:33;94221.97;;;-0.40;100.00
13209;BME280;6669;42.678;23.332;2023-04-06T02:40:01;94186.69;;;-0.57;100.00
13209;BME280;6669;42.678;23.332;2023-04-06T02:42:30;94225.94;;;-0.36;100.00
13209;BME280;6669;42.678;23.332;2023-04-06T02:44:57;94224.44;;;-0.38;100.00
13209;BME280;6669;42.678;23.332;2023-04-06T02:47:25;94215.47;;;-0.44;100.00
13209;BME280;6669;42.678;23.332;2023-04-06T02:49:55;94230.91;;;-0.45;100.00
13209;BME280;6669;42.678;23.332;2023-04-06T02:52:23;94216.28;;;-0.43;100.00
13209;BME280;6669;42.678;23.332;2023-04-06T02:54:51;94231.59;;;-0.43;100.00
13209;BME280;6669;42.678;23.332;2023-04-06T02:57:19;94219.41;;;-0.51;100.00
13209;BME280;6669;42.678;23.332;2023-04-06T02:59:47;94216.28;;;-0.43;100.00
13209;BME280;6669;42.678;23.332;2023-04-06T03:02:15;94212.22;;;-0.46;100.00
13209;BME280;6669;42.678;23.332;2023-04-06T03:04:44;94212.59;;;-0.39;100.00
13209;BME280;6669;42.678;23.332;2023-04-06T03:07:13;94207.94;;;-0.45;100.00
13209;BME280;6669;42.678;23.332;2023-04-06T03:09:42;94215.72;;;-0.47;100.00
13209;BME280;6669;42.678;23.332;2023-04-06T03:12:10;94220.81;;;-0.47;100.00
13209;BME280;6669;42.678;23.332;2023-04-06T03:14:38;94212.22;;;-0.46;100.00
13209;BME280;6669;42.678;23.332;2023-04-06T03:17:06;94185.63;;;-0.66;100.00
13209;BME280;6669;42.678;23.332;2023-04-06T03:19:33;94217.91;;;-0.42;100.00
13209;BME280;6669;42.678;23.332;2023-04-06T03:22:01;94205.72;;;-0.50;100.00
13209;BME280;6669;42.678;23.332;2023-04-06T03:24:31;94199.81;;;-0.51;100.00
13209;BME280;6669;42.678;23.332;2023-04-06T03:26:59;94182.97;;;-0.53;100.00
13209;BME280;6669;42.678;23.332;2023-04-06T03:29:27;94205.72;;;-0.39;100.00
13209;BME280;6669;42.678;23.332;2023-04-06T03:31:55;94224.88;;;-0.44;100.00
13209;BME280;6669;42.678;23.332;2023-04-06T03:34:23;94204.00;;;-0.38;100.00
13209;BME280;6669;42.678;23.332;2023-04-06T03:36:51;94182.72;;;-0.50;100.00
13209;BME280;6669;42.678;23.332;2023-04-06T03:39:36;94189.72;;;-0.52;100.00
13209;BME280;6669;42.678;23.332;2023-04-06T03:42:04;94218.94;;;-0.34;100.00
13209;BME280;6669;42.678;23.332;2023-04-06T03:44:32;94204.34;;;-0.31;100.00
13209;BME280;6669;42.678;23.332;2023-04-06T03:47:00;94180.63;;;-0.56;100.00
13209;BME280;6669;42.678;23.332;2023-04-06T03:49:28;94200.03;;;-0.31;100.00
13209;BME280;6669;42.678;23.332;2023-04-06T03:51:56;94213.25;;;-0.26;100.00
13209;BME280;6669;42.678;23.332;2023-04-06T03:54:25;94170.22;;;-0.42;100.00
13209;BME280;6669;42.678;23.332;2023-04-06T03:56:54;94212.81;;;-0.20;100.00
13209;BME280;6669;42.678;23.332;2023-04-06T03:59:22;94211.53;;;-0.14;100.00
13209;BME280;6669;42.678;23.332;2023-04-06T04:01:51;94208.28;;;-0.16;100.00
13209;BME280;6669;42.678;23.332;2023-04-06T04:04:19;94200.88;;;-0.19;100.00
13209;BME280;6669;42.678;23.332;2023-04-06T04:06:47;94207.09;;;-0.23;100.00
13209;BME280;6669;42.678;23.332;2023-04-06T04:09:15;94211.16;;;-0.21;100.00
13209;BME280;6669;42.678;23.332;2023-04-06T04:11:43;94208.53;;;-0.19;100.00
13209;BME280;6669;42.678;23.332;2023-04-06T04:14:12;94183.91;;;-0.31;100.00
13209;BME280;6669;42.678;23.332;2023-04-06T04:16:40;94204.09;;;-0.17;100.00
13209;BME280;6669;42.678;23.332;2023-04-06T04:19:08;94180.66;;;-0.34;100.00
13209;BME280;6669;42.678;23.332;2023-04-06T04:21:42;94199.69;;;-0.26;100.00
13209;BME280;6669;42.678;23.332;2023-04-06T04:24:11;94205.25;;;-0.32;100.00
13209;BME280;6669;42.678;23.332;2023-04-06T04:26:39;94209.91;;;-0.38;100.00
13209;BME280;6669;42.678;23.332;2023-04-06T04:29:08;94201.31;;;-0.37;100.00
13209;BME280;6669;42.678;23.332;2023-04-06T04:31:37;94212.22;;;-0.23;100.00
13209;BME280;6669;42.678;23.332;2023-04-06T04:34:06;94212.22;;;-0.23;100.00
13209;BME280;6669;42.678;23.332;2023-04-06T04:36:34;94222.44;;;-0.23;100.00
13209;BME280;6669;42.678;23.332;2023-04-06T04:39:02;94216.06;;;-0.18;100.00
13209;BME280;6669;42.678;23.332;2023-04-06T04:41:30;94220.81;;;-0.13;100.00
13209;BME280;6669;42.678;23.332;2023-04-06T04:43:58;94210.13;;;-0.18;100.00
13209;BME280;6669;42.678;23.332;2023-04-06T04:46:26;94218.50;;;-0.16;100.00
13209;BME280;6669;42.678;23.332;2023-04-06T04:48:56;94214.19;;;-0.15;100.00
13209;BME280;6669;42.678;23.332;2023-04-06T04:51:24;94220.34;;;-0.18;100.00
13209;BME280;6669;42.678;23.332;2023-04-06T04:53:52;94207.81;;;-0.21;100.00
13209;BME280;6669;42.678;23.332;2023-04-06T04:56:20;94206.31;;;-0.12;100.00
13209;BME280;6669;42.678;23.332;2023-04-06T04:58:53;94206.97;;;-0.10;100.00
13209;BME280;6669;42.678;23.332;2023-04-06T05:01:21;94213.25;;;-0.14;100.00
13209;BME280;6669;42.678;23.332;2023-04-06T05:03:49;94212.09;;;-0.10;100.00
13209;BME280;6669;42.678;23.332;2023-04-06T05:06:18;94178.22;;;-0.24;100.00
13209;BME280;6669;42.678;23.332;2023-04-06T05:08:46;94194.34;;;-0.12;100.00
13209;BME280;6669;42.678;23.332;2023-04-06T05:11:14;94203.50;;;-0.09;100.00
13209;BME280;6669;42.678;23.332;2023-04-06T05:13:42;94172.28;;;-0.24;100.00
13209;BME280;6669;42.678;23.332;2023-04-06T05:16:11;94172.97;;;-0.22;100.00
13209;BME280;6669;42.678;23.332;2023-04-06T05:18:39;94206.97;;;0.01;100.00
13209;BME280;6669;42.678;23.332;2023-04-06T05:21:07;94218.63;;;-0.06;100.00
13209;BME280;6669;42.678;23.332;2023-04-06T05:23:36;94207.34;;;-0.04;100.00
13209;BME280;6669;42.678;23.332;2023-04-06T05:26:04;94211.16;;;0.02;100.00
13209;BME280;6669;42.678;23.332;2023-04-06T05:28:32;94212.91;;;0.02;100.00
13209;BME280;6669;42.678;23.332;2023-04-06T05:31:00;94220.22;;;-0.05;100.00
13209;BME280;6669;42.678;23.332;2023-04-06T05:33:28;94205.47;;;-0.02;100.00
13209;BME280;6669;42.678;23.332;2023-04-06T05:35:56;94205.13;;;0.03;100.00
13209;BME280;6669;42.678;23.332;2023-04-06T05:38:24;94169.84;;;-0.14;100.00
13209;BME280;6669;42.678;23.332;2023-04-06T05:40:54;94198.50;;;0.12;100.00
13209;BME280;6669;42.678;23.332;2023-04-06T05:43:22;94193.59;;;0.09;100.00
13209;BME280;6669;42.678;23.332;2023-04-06T05:45:50;94203.75;;;0.10;100.00
13209;BME280;6669;42.678;23.332;2023-04-06T05:48:18;94208.00;;;0.10;100.00
13209;BME280;6669;42.678;23.332;2023-04-06T05:50:48;94190.84;;;0.01;100.00
13209;BME280;6669;42.678;23.332;2023-04-06T05:53:17;94186.44;;;0.03;100.00
13209;BME280;6669;42.678;23.332;2023-04-06T05:55:44;94198.69;;;0.20;100.00
13209;BME280;6669;42.678;23.332;2023-04-06T05:58:14;94207.88;;;0.23;100.00
13209;BME280;6669;42.678;23.332;2023-04-06T06:00:43;94192.66;;;0.21;100.00
13209;BME280;6669;42.678;23.332;2023-04-06T06:03:12;94190.56;;;0.26;100.00
13209;BME280;6669;42.678;23.332;2023-04-06T06:05:41;94200.13;;;0.24;100.00
13209;BME280;6669;42.678;23.332;2023-04-06T06:08:09;94154.63;;;-0.05;100.00
13209;BME280;6669;42.678;23.332;2023-04-06T06:10:38;94190.81;;;0.23;100.00
13209;BME280;6669;42.678;23.332;2023-04-06T06:13:07;94174.19;;;0.18;100.00
13209;BME280;6669;42.678;23.332;2023-04-06T06:15:36;94148.06;;;0.14;100.00
13209;BME280;6669;42.678;23.332;2023-04-06T06:18:04;94189.06;;;0.24;100.00
13209;BME280;6669;42.678;23.332;2023-04-06T06:20:32;94200.19;;;0.34;100.00
13209;BME280;6669;42.678;23.332;2023-04-06T06:23:00;94150.06;;;0.10;100.00
13209;BME280;6669;42.678;23.332;2023-04-06T06:25:29;94166.69;;;0.05;100.00
13209;BME280;6669;42.678;23.332;2023-04-06T06:27:58;94195.00;;;0.24;100.00
13209;BME280;6669;42.678;23.332;2023-04-06T06:30:26;94176.41;;;0.22;100.00
13209;BME280;6669;42.678;23.332;2023-04-06T06:32:55;94184.72;;;0.36;100.00
13209;BME280;6669;42.678;23.332;2023-04-06T06:35:23;94191.16;;;0.62;100.00
13209;BME280;6669;42.678;23.332;2023-04-06T06:37:51;94182.97;;;0.69;100.00
13209;BME280;6669;42.678;23.332;2023-04-06T06:40:20;94178.00;;;0.67;100.00
13209;BME280;6669;42.678;23.332;2023-04-06T06:42:50;94186.47;;;0.79;100.00
13209;BME280;6669;42.678;23.332;2023-04-06T06:45:19;94185.19;;;0.73;100.00
13209;BME280;6669;42.678;23.332;2023-04-06T06:47:48;94140.09;;;0.40;100.00
13209;BME280;6669;42.678;23.332;2023-04-06T06:50:22;94139.41;;;0.38;100.00
13209;BME280;6669;42.678;23.332;2023-04-06T06:52:51;94198.38;;;0.57;100.00
13209;BME280;6669;42.678;23.332;2023-04-06T06:55:19;94194.63;;;0.73;100.00
13209;BME280;6669;42.678;23.332;2023-04-06T06:57:47;94203.34;;;0.91;100.00
13209;BME280;6669;42.678;23.332;2023-04-06T07:00:15;94199.16;;;0.90;100.00
13209;BME280;6669;42.678;23.332;2023-04-06T07:02:43;94193.78;;;1.05;100.00
13209;BME280;6669;42.678;23.332;2023-04-06T07:05:12;94199.84;;;1.25;100.00
13209;BME280;6669;42.678;23.332;2023-04-06T07:07:55;94192.25;;;1.44;100.00
13209;BME280;6669;42.678;23.332;2023-04-06T07:10:24;94214.00;;;1.08;100.00
13209;BME280;6669;42.678;23.332;2023-04-06T07:12:52;94197.00;;;1.07;100.00
13209;BME280;6669;42.678;23.332;2023-04-06T07:15:20;94189.09;;;1.10;100.00
13209;BME280;6669;42.678;23.332;2023-04-06T07:17:48;94193.81;;;0.93;100.00
13209;BME280;6669;42.678;23.332;2023-04-06T07:20:17;94198.63;;;1.08;100.00
13209;BME280;6669;42.678;23.332;2023-04-06T07:22:45;94174.75;;;1.28;100.00
13209;BME280;6669;42.678;23.332;2023-04-06T07:25:17;94187.50;;;1.40;100.00
13209;BME280;6669;42.678;23.332;2023-04-06T07:27:48;94198.13;;;1.35;100.00
13209;BME280;6669;42.678;23.332;2023-04-06T07:30:16;94193.47;;;1.50;100.00
13209;BME280;6669;42.678;23.332;2023-04-06T07:32:49;94191.53;;;1.63;100.00
13209;BME280;6669;42.678;23.332;2023-04-06T07:35:17;94180.50;;;1.73;100.00
13209;BME280;6669;42.678;23.332;2023-04-06T07:37:48;94196.53;;;1.65;100.00
13209;BME280;6669;42.678;23.332;2023-04-06T07:40:20;94190.34;;;1.99;100.00
13209;BME280;6669;42.678;23.332;2023-04-06T07:42:49;94192.66;;;1.71;100.00
13209;BME280;6669;42.678;23.332;2023-04-06T07:45:21;94202.41;;;1.77;100.00
13209;BME280;6669;42.678;23.332;2023-04-06T07:47:52;94174.94;;;1.58;100.00
13209;BME280;6669;42.678;23.332;2023-04-06T07:50:21;94183.56;;;1.57;100.00
13209;BME280;6669;42.678;23.332;2023-04-06T07:52:49;94171.91;;;1.43;100.00
13209;BME280;6669;42.678;23.332;2023-04-06T07:55:19;94183.34;;;1.39;100.00
13209;BME280;6669;42.678;23.332;2023-04-06T07:57:48;94191.09;;;1.58;100.00
13209;BME280;6669;42.678;23.332;2023-04-06T08:00:17;94182.56;;;1.79;100.00
13209;BME280;6669;42.678;23.332;2023-04-06T08:02:48;94169.38;;;1.84;100.00
13209;BME280;6669;42.678;23.332;2023-04-06T08:05:17;94188.00;;;1.95;100.00
13209;BME280;6669;42.678;23.332;2023-04-06T08:07:45;94172.66;;;2.05;100.00
13209;BME280;6669;42.678;23.332;2023-04-06T08:10:14;94158.72;;;1.88;100.00
13209;BME280;6669;42.678;23.332;2023-04-06T08:12:44;94179.25;;;1.98;100.00
13209;BME280;6669;42.678;23.332;2023-04-06T08:15:13;94184.38;;;1.98;100.00
13209;BME280;6669;42.678;23.332;2023-04-06T08:17:41;94180.16;;;1.56;100.00
13209;BME280;6669;42.678;23.332;2023-04-06T08:20:10;94175.78;;;1.68;100.00
13209;BME280;6669;42.678;23.332;2023-04-06T08:22:38;94201.69;;;1.75;100.00
13209;BME280;6669;42.678;23.332;2023-04-06T08:25:09;94182.38;;;2.02;100.00
13209;BME280;6669;42.678;23.332;2023-04-06T08:27:37;94187.69;;;2.20;100.00
13209;BME280;6669;42.678;23.332;2023-04-06T08:30:08;94197.28;;;2.18;100.00
13209;BME280;6669;42.678;23.332;2023-04-06T08:32:37;94198.78;;;2.40;100.00
13209;BME280;6669;42.678;23.332;2023-04-06T08:35:05;94199.47;;;2.42;100.00
13209;BME280;6669;42.678;23.332;2023-04-06T08:37:36;94176.41;;;2.42;100.00
13209;BME280;6669;42.678;23.332;2023-04-06T08:40:08;94157.34;;;2.64;100.00
13209;BME280;6669;42.678;23.332;2023-04-06T08:42:44;94155.47;;;2.56;100.00
13209;BME280;6669;42.678;23.332;2023-04-06T08:45:18;94208.41;;;2.77;100.00
13209;BME280;6669;42.678;23.332;2023-04-06T08:47:49;94208.41;;;2.57;100.00
13209;BME280;6669;42.678;23.332;2023-04-06T08:50:19;94200.44;;;2.90;100.00
13209;BME280;6669;42.678;23.332;2023-04-06T08:52:48;94186.81;;;2.80;100.00
13209;BME280;6669;42.678;23.332;2023-04-06T08:55:16;94209.34;;;2.76;100.00
13209;BME280;6669;42.678;23.332;2023-04-06T08:57:45;94215.16;;;2.68;100.00
13209;BME280;6669;42.678;23.332;2023-04-06T09:00:17;94200.13;;;2.44;100.00
13209;BME280;6669;42.678;23.332;2023-04-06T09:02:46;94187.59;;;2.60;100.00
13209;BME280;6669;42.678;23.332;2023-04-06T09:05:16;94198.69;;;2.81;100.00
13209;BME280;6669;42.678;23.332;2023-04-06T09:07:45;94186.34;;;2.35;100.00
13209;BME280;6669;42.678;23.332;2023-04-06T09:10:13;94191.38;;;2.37;100.00
13209;BME280;6669;42.678;23.332;2023-04-06T09:12:42;94180.03;;;2.49;100.00
13209;BME280;6669;42.678;23.332;2023-04-06T09:15:19;94188.56;;;2.79;100.00
13209;BME280;6669;42.678;23.332;2023-04-06T09:17:50;94182.75;;;2.87;100.00
13209;BME280;6669;42.678;23.332;2023-04-06T09:20:22;94168.44;;;2.74;100.00
13209;BME280;6669;42.678;23.332;2023-04-06T09:22:52;94177.63;;;2.77;100.00
13209;BME280;6669;42.678;23.332;2023-04-06T09:25:34;94174.91;;;2.78;100.00
13209;BME280;6669;42.678;23.332;2023-04-06T09:28:04;94182.44;;;3.19;100.00
13209;BME280;6669;42.678;23.332;2023-04-06T09:30:35;94185.09;;;3.47;100.00
13209;BME280;6669;42.678;23.332;2023-04-06T09:33:05;94170.38;;;3.30;100.00
13209;BME280;6669;42.678;23.332;2023-04-06T09:35:33;94192.66;;;3.49;100.00
13209;BME280;6669;42.678;23.332;2023-04-06T09:38:10;94175.88;;;3.54;100.00
13209;BME280;6669;42.678;23.332;2023-04-06T09:40:48;94192.72;;;3.76;100.00
13209;BME280;6669;42.678;23.332;2023-04-06T09:43:27;94165.38;;;3.48;100.00
13209;BME280;6669;42.678;23.332;2023-04-06T09:45:56;94181.88;;;3.83;100.00
13209;BME280;6669;42.678;23.332;2023-04-06T09:48:26;94178.50;;;3.82;100.00
13209;BME280;6669;42.678;23.332;2023-04-06T09:50:59;94163.03;;;3.54;100.00
13209;BME280;6669;42.678;23.332;2023-04-06T09:53:30;94165.69;;;3.25;100.00
13209;BME280;6669;42.678;23.332;2023-04-06T09:56:02;94193.25;;;3.42;100.00
13209;BME280;6669;42.678;23.332;2023-04-06T09:58:34;94181.47;;;3.40;100.00
13209;BME280;6669;42.678;23.332;2023-04-06T10:01:10;94195.66;;;3.44;100.00
13209;BME280;6669;42.678;23.332;2023-04-06T10:03:45;94171.41;;;2.80;100.00
13209;BME280;6669;42.678;23.332;2023-04-06T10:06:19;94194.63;;;3.17;100.00
13209;BME280;6669;42.678;23.332;2023-04-06T10:08:52;94185.97;;;3.18;100.00
13209;BME280;6669;42.678;23.332;2023-04-06T10:11:26;94199.19;;;3.43;100.00
13209;BME280;6669;42.678;23.332;2023-04-06T10:13:55;94156.06;;;3.37;100.00
13209;BME280;6669;42.678;23.332;2023-04-06T10:16:25;94187.22;;;3.99;100.00
13209;BME280;6669;42.678;23.332;2023-04-06T10:18:57;94174.25;;;3.53;100.00
13209;BME280;6669;42.678;23.332;2023-04-06T10:21:27;94164.38;;;3.58;100.00
13209;BME280;6669;42.678;23.332;2023-04-06T10:23:59;94194.31;;;3.87;100.00
13209;BME280;6669;42.678;23.332;2023-04-06T10:26:27;94194.03;;;3.53;100.00
13209;BME280;6669;42.678;23.332;2023-04-06T10:29:02;94169.91;;;3.64;100.00
13209;BME280;6669;42.678;23.332;2023-04-06T10:31:32;94162.06;;;3.93;100.00
13209;BME280;6669;42.678;23.332;2023-04-06T10:34:02;94157.78;;;4.57;100.00
13209;BME280;6669;42.678;23.332;2023-04-06T10:36:32;94169.91;;;4.47;100.00
13209;BME280;6669;42.678;23.332;2023-04-06T10:39:03;94164.25;;;4.16;100.00
13209;BME280;6669;42.678;23.332;2023-04-06T10:41:35;94151.44;;;4.06;100.00
13209;BME280;6669;42.678;23.332;2023-04-06T10:44:03;94144.72;;;4.23;100.00
13209;BME280;6669;42.678;23.332;2023-04-06T10:46:33;94144.47;;;4.80;100.00
13209;BME280;6669;42.678;23.332;2023-04-06T10:49:10;94146.28;;;5.32;97.25
13209;BME280;6669;42.678;23.332;2023-04-06T10:51:39;94150.38;;;5.69;100.00
13209;BME280;6669;42.678;23.332;2023-04-06T10:54:09;94155.34;;;5.63;98.20
13209;BME280;6669;42.678;23.332;2023-04-06T10:56:37;94151.84;;;5.19;100.00
13209;BME280;6669;42.678;23.332;2023-04-06T10:59:06;94154.00;;;5.59;100.00
13209;BME280;6669;42.678;23.332;2023-04-06T11:01:36;94157.75;;;5.64;100.00
13209;BME280;6669;42.678;23.332;2023-04-06T11:04:04;94136.03;;;5.14;100.00
13209;BME280;6669;42.678;23.332;2023-04-06T11:06:35;94159.44;;;5.21;99.80
13209;BME280;6669;42.678;23.332;2023-04-06T11:09:03;94136.78;;;5.33;99.61
13209;BME280;6669;42.678;23.332;2023-04-06T11:11:31;94133.00;;;6.06;97.93
13209;BME280;6669;42.678;23.332;2023-04-06T11:14:00;94128.56;;;5.64;93.21
13209;BME280;6669;42.678;23.332;2023-04-06T11:16:31;94119.84;;;5.91;92.94
13209;BME280;6669;42.678;23.332;2023-04-06T11:19:02;94114.78;;;5.81;92.25
13209;BME280;6669;42.678;23.332;2023-04-06T11:21:33;94139.81;;;5.89;88.98
13209;BME280;6669;42.678;23.332;2023-04-06T11:24:22;94099.81;;;5.85;91.38
13209;BME280;6669;42.678;23.332;2023-04-06T11:27:02;94126.88;;;6.24;86.61
13209;BME280;6669;42.678;23.332;2023-04-06T11:29:33;94085.78;;;6.38;86.81
13209;BME280;6669;42.678;23.332;2023-04-06T11:32:04;94132.00;;;6.58;82.07
13209;BME280;6669;42.678;23.332;2023-04-06T11:34:36;94130.97;;;6.34;81.92
13209;BME280;6669;42.678;23.332;2023-04-06T11:37:08;94115.84;;;6.81;83.75
13209;BME280;6669;42.678;23.332;2023-04-06T11:39:38;94102.38;;;6.11;80.19
13209;BME280;6669;42.678;23.332;2023-04-06T11:42:07;94114.25;;;6.04;85.29
13209;BME280;6669;42.678;23.332;2023-04-06T11:44:36;94104.81;;;5.86;85.52
13209;BME280;6669;42.678;23.332;2023-04-06T11:47:08;94109.13;;;5.78;85.22
13209;BME280;6669;42.678;23.332;2023-04-06T11:49:39;94106.59;;;4.72;88.83
13209;BME280;6669;42.678;23.332;2023-04-06T11:52:15;94114.59;;;4.33;93.94
13209;BME280;6669;42.678;23.332;2023-04-06T11:54:43;94098.41;;;4.59;97.83
13209;BME280;6669;42.678;23.332;2023-04-06T11:57:13;94096.78;;;4.94;97.58
13209;BME280;6669;42.678;23.332;2023-04-06T11:59:42;94092.31;;;5.04;96.47
13209;BME280;6669;42.678;23.332;2023-04-06T12:02:11;94105.16;;;5.22;95.24
13209;BME280;6669;42.678;23.332;2023-04-06T12:04:41;94096.38;;;5.07;93.69
13209;BME280;6669;42.678;23.332;2023-04-06T12:07:10;94092.25;;;5.14;93.45
13209;BME280;6669;42.678;23.332;2023-04-06T12:09:39;94088.50;;;5.08;95.18
13209;BME280;6669;42.678;23.332;2023-04-06T12:12:09;94108.22;;;5.00;93.43
13209;BME280;6669;42.678;23.332;2023-04-06T12:14:38;94096.13;;;4.74;96.25
13209;BME280;6669;42.678;23.332;2023-04-06T12:17:06;94092.81;;;4.82;96.81
13209;BME280;6669;42.678;23.332;2023-04-06T12:22:49;94103.06;;;4.55;100.00
13209;BME280;6669;42.678;23.332;2023-04-06T12:25:17;94096.28;;;4.36;100.00
13209;BME280;6669;42.678;23.332;2023-04-06T12:27:49;94093.50;;;4.48;100.00
13209;BME280;6669;42.678;23.332;2023-04-06T12:30:21;94103.16;;;4.46;100.00
13209;BME280;6669;42.678;23.332;2023-04-06T12:32:50;94103.28;;;4.44;99.51
13209;BME280;6669;42.678;23.332;2023-04-06T12:35:18;94098.22;;;4.52;100.00
13209;BME280;6669;42.678;23.332;2023-04-06T12:37:50;94094.22;;;4.40;99.38
13209;BME280;6669;42.678;23.332;2023-04-06T12:40:19;94104.75;;;4.29;96.60
13209;BME280;6669;42.678;23.332;2023-04-06T12:42:48;94080.19;;;4.16;97.89
13209;BME280;6669;42.678;23.332;2023-04-06T12:45:16;94082.53;;;4.09;98.52
13209;BME280;6669;42.678;23.332;2023-04-06T12:47:45;94084.25;;;4.37;100.00
13209;BME280;6669;42.678;23.332;2023-04-06T12:50:14;94080.72;;;4.38;98.65
13209;BME280;6669;42.678;23.332;2023-04-06T12:52:55;94085.72;;;4.57;99.23
13209;BME280;6669;42.678;23.332;2023-04-06T12:55:23;94083.94;;;4.40;96.30
13209;BME280;6669;42.678;23.332;2023-04-06T12:57:51;94039.63;;;4.28;98.98
13209;BME280;6669;42.678;23.332;2023-04-06T13:00:20;94051.94;;;4.61;98.56
13209;BME280;6669;42.678;23.332;2023-04-06T13:02:49;94084.66;;;4.50;98.65
13209;BME280;6669;42.678;23.332;2023-04-06T13:05:17;94069.78;;;4.80;99.17
13209;BME280;6669;42.678;23.332;2023-04-06T13:07:45;94072.41;;;4.88;99.24
13209;BME280;6669;42.678;23.332;2023-04-06T13:10:15;94068.00;;;4.81;96.63
13209;BME280;6669;42.678;23.332;2023-04-06T13:12:43;94069.78;;;4.80;97.12